Time;durP1;ratioP1;P1;durP2;ratioP2;P2;SDS_P1;SDS_P2;PMS_P1;PMS_P2;Temp;Humidity;BMP_temperature;BMP_pressure;BME280_temperature;BME280_humidity;BME280_pressure;Samples;Min_cycle;Max_cycle;Signal;HPM_P1;HPM_P2
2023/10/03 00:02:34;;;;;;;28.35;12.93;;;;;;;16.28;84.83;100145.53;10154696;29;20194;-78
2023/10/03 00:07:37;;;;;;;27.60;13.25;;;;;;;16.39;83.83;100124.53;10145520;29;20055;-78
2023/10/03 00:12:42;;;;;;;24.50;12.32;;;;;;;16.38;83.80;100112.88;10143562;29;20056;-79
2023/10/03 00:17:45;;;;;;;21.92;11.57;;;;;;;16.27;83.94;100105.06;10140542;29;20512;-78
2023/10/03 00:22:49;;;;;;;24.30;12.70;;;;;;;16.36;82.94;100099.47;10137183;29;20052;-78
2023/10/03 00:27:55;;;;;;;21.67;11.82;;;;;;;16.31;82.85;100093.69;10145831;29;20141;-78
2023/10/03 00:33:02;;;;;;;24.83;12.40;;;;;;;16.34;82.79;100081.69;10140109;29;20060;-77
2023/10/03 00:38:09;;;;;;;21.70;11.23;;;;;;;16.27;82.68;100064.41;10144645;29;20056;-78
2023/10/03 00:43:14;;;;;;;27.20;13.23;;;;;;;16.21;82.82;100060.50;10157344;29;20052;-79
2023/10/03 00:48:18;;;;;;;27.98;13.10;;;;;;;16.16;82.75;100046.59;10145408;29;20054;-78
2023/10/03 00:53:23;;;;;;;25.20;12.35;;;;;;;16.11;83.00;100051.66;10139633;29;20048;-78
2023/10/03 00:58:31;;;;;;;25.75;13.02;;;;;;;16.08;83.00;100038.47;10144231;29;20052;-78
2023/10/03 01:03:36;;;;;;;24.77;12.15;;;;;;;16.08;82.92;100035.75;10139955;29;20043;-77
2023/10/03 01:08:42;;;;;;;25.35;13.02;;;;;;;16.04;82.82;100034.38;10138471;29;20288;-77
2023/10/03 01:13:49;;;;;;;25.08;12.77;;;;;;;16.02;82.69;100020.19;10146291;29;20760;-78
2023/10/03 01:18:53;;;;;;;24.40;13.05;;;;;;;15.93;83.20;100014.75;10151874;29;20048;-78
2023/10/03 01:23:59;;;;;;;27.90;13.05;;;;;;;15.92;82.90;100021.16;10152559;29;20052;-78
2023/10/03 01:29:02;;;;;;;29.80;14.13;;;;;;;15.87;83.38;100004.56;10143550;29;20164;-78
2023/10/03 01:34:06;;;;;;;26.73;13.27;;;;;;;15.80;83.15;99994.59;10146128;29;20056;-79
2023/10/03 01:39:11;;;;;;;28.52;14.25;;;;;;;15.84;82.65;99982.41;10140389;29;20170;-78
2023/10/03 01:44:16;;;;;;;26.98;14.02;;;;;;;15.83;82.76;99981.56;10155252;29;20051;-78
2023/10/03 01:49:20;;;;;;;28.98;14.10;;;;;;;15.85;82.66;99970.53;10146583;29;20476;-77
2023/10/03 01:54:25;;;;;;;27.92;13.57;;;;;;;15.91;82.18;99972.59;10148549;29;20058;-78
2023/10/03 01:59:29;;;;;;;24.33;12.82;;;;;;;15.92;82.13;99958.03;10159037;29;20162;-78
2023/10/03 02:04:32;;;;;;;26.10;12.52;;;;;;;16.00;81.53;99949.91;10145846;29;20059;-77
2023/10/03 02:09:36;;;;;;;27.02;12.75;;;;;;;16.10;81.30;99936.19;10160487;29;20052;-77
2023/10/03 02:14:40;;;;;;;29.73;13.13;;;;;;;16.11;80.64;99917.03;10140922;29;20040;-79
2023/10/03 02:19:43;;;;;;;29.20;13.25;;;;;;;16.16;80.41;99911.13;10146053;29;20516;-78
2023/10/03 02:24:48;;;;;;;29.15;12.95;;;;;;;16.21;80.07;99887.06;10138822;29;20063;-79
2023/10/03 02:29:51;;;;;;;25.58;12.73;;;;;;;16.23;80.01;99874.16;10147420;29;20312;-79
2023/10/03 02:34:54;;;;;;;29.40;13.82;;;;;;;16.17;80.33;99850.47;10160946;29;20062;-78
2023/10/03 02:40:00;;;;;;;25.70;12.60;;;;;;;16.20;80.02;99836.59;10166075;29;20063;-79
2023/10/03 02:45:06;;;;;;;25.00;12.77;;;;;;;16.18;79.81;99833.22;10179664;29;20507;-77
2023/10/03 02:50:12;;;;;;;28.08;12.82;;;;;;;16.19;79.91;99831.34;10152961;29;20140;-78
2023/10/03 02:55:17;;;;;;;32.78;13.38;;;;;;;16.15;80.20;99830.84;10148066;29;20052;-78
2023/10/03 03:00:20;;;;;;;29.23;12.82;;;;;;;16.17;80.36;99819.84;10173686;29;20047;-78
2023/10/03 03:05:23;;;;;;;25.95;12.55;;;;;;;16.13;80.51;99798.53;10149916;29;20047;-78
2023/10/03 03:10:30;;;;;;;28.02;12.70;;;;;;;16.15;80.40;99801.03;10149879;29;20080;-76
2023/10/03 03:15:37;;;;;;;31.38;13.65;;;;;;;16.17;80.53;99795.44;10152708;29;20138;-79
2023/10/03 03:20:43;;;;;;;31.75;14.05;;;;;;;16.12;80.23;99769.72;10153643;29;20052;-79
2023/10/03 03:25:49;;;;;;;26.50;11.95;;;;;;;16.18;80.24;99751.94;10155485;29;20063;-79
2023/10/03 03:30:57;;;;;;;29.25;12.07;;;;;;;16.18;80.18;99734.81;10156780;29;20080;-79
2023/10/03 03:36:01;;;;;;;29.42;12.70;;;;;;;16.26;79.61;99729.38;10157000;29;20091;-78
2023/10/03 03:41:06;;;;;;;27.23;12.93;;;;;;;16.37;79.11;99718.16;10155607;29;20053;-79
2023/10/03 03:46:09;;;;;;;28.35;12.52;;;;;;;16.49;78.10;99713.19;10143543;29;20059;-78
2023/10/03 03:51:12;;;;;;;28.75;12.70;;;;;;;16.66;77.31;99711.19;10152998;29;20055;-79
2023/10/03 03:56:16;;;;;;;26.73;12.77;;;;;;;16.82;76.30;99689.38;10144037;29;20727;-79
2023/10/03 04:01:20;;;;;;;27.90;12.73;;;;;;;17.11;74.75;99685.06;10143725;29;20059;-78
2023/10/03 04:06:23;;;;;;;26.23;12.43;;;;;;;17.25;73.79;99673.41;10146151;29;20056;-77
2023/10/03 04:11:27;;;;;;;26.63;12.23;;;;;;;17.41;73.26;99661.53;10147806;29;20893;-78
2023/10/03 04:16:38;;;;;;;26.27;13.18;;;;;;;17.68;72.14;99660.06;10153055;29;20059;-79
2023/10/03 04:21:41;;;;;;;26.58;12.18;;;;;;;17.84;71.45;99657.13;10146545;29;20138;-79
2023/10/03 04:26:46;;;;;;;29.33;12.40;;;;;;;17.90;70.98;99637.34;10149722;29;20052;-79
2023/10/03 04:31:49;;;;;;;25.30;12.43;;;;;;;17.91;70.92;99649.09;10146563;29;20051;-79
2023/10/03 04:36:52;;;;;;;29.50;12.13;;;;;;;17.90;71.12;99655.53;10154961;29;20156;-78
2023/10/03 04:41:58;;;;;;;27.38;11.77;;;;;;;18.01;70.53;99643.38;10155072;29;20055;-78
2023/10/03 04:47:01;;;;;;;23.05;10.68;;;;;;;18.51;67.49;99637.03;10143830;29;20063;-78
2023/10/03 04:52:07;;;;;;;23.13;11.10;;;;;;;19.10;64.91;99656.81;10144304;29;20162;-78
2023/10/03 04:57:11;;;;;;;25.05;11.73;;;;;;;19.52;63.03;99665.88;10147515;29;20058;-77
2023/10/03 05:02:14;;;;;;;22.13;10.25;;;;;;;19.52;62.69;99655.81;10152145;29;20103;-77
2023/10/03 05:07:17;;;;;;;22.02;10.55;;;;;;;19.53;61.58;99660.25;10145745;29;20055;-78
2023/10/03 05:12:24;;;;;;;22.02;10.73;;;;;;;19.76;61.21;99659.16;10149271;29;20050;-78
2023/10/03 05:17:27;;;;;;;20.30;10.05;;;;;;;19.84;60.78;99667.16;10143994;29;20051;-78
2023/10/03 05:22:32;;;;;;;22.40;10.50;;;;;;;19.90;60.73;99669.88;10148003;29;20059;-78
2023/10/03 05:27:37;;;;;;;23.58;9.88;;;;;;;20.02;60.50;99663.84;10140584;29;20048;-78
2023/10/03 05:32:41;;;;;;;23.63;11.18;;;;;;;19.94;60.43;99662.16;10142083;29;20054;-77
2023/10/03 05:37:44;;;;;;;23.05;9.88;;;;;;;20.01;60.21;99663.03;10141855;29;20055;-77
2023/10/03 05:42:49;;;;;;;21.88;10.70;;;;;;;19.87;61.32;99674.91;10144773;29;21253;-76
2023/10/03 05:47:52;;;;;;;23.00;9.70;;;;;;;19.72;62.09;99671.47;10143236;29;20559;-78
2023/10/03 05:52:55;;;;;;;23.98;10.43;;;;;;;20.01;61.82;99684.00;10136118;29;20083;-78
2023/10/03 05:57:59;;;;;;;21.08;8.60;;;;;;;19.55;62.98;99688.09;10157352;29;20060;-78
2023/10/03 06:03:05;;;;;;;24.88;9.65;;;;;;;19.51;63.75;99689.56;10147388;29;20052;-78
2023/10/03 06:08:12;;;;;;;22.38;9.40;;;;;;;19.72;63.47;99709.63;10147296;29;20466;-77
2023/10/03 06:13:16;;;;;;;21.63;8.77;;;;;;;19.23;65.30;99701.31;10137475;29;20060;-77
2023/10/03 06:18:19;;;;;;;25.45;11.25;;;;;;;19.72;64.24;99694.13;10157471;29;20052;-77
2023/10/03 06:23:22;;;;;;;23.52;10.13;;;;;;;19.32;66.02;99699.28;10158511;29;20099;-77
2023/10/03 06:28:28;;;;;;;21.45;9.00;;;;;;;19.59;65.30;99694.88;10149152;29;20333;-78
2023/10/03 06:33:31;;;;;;;23.48;9.55;;;;;;;19.70;65.03;99718.00;10147102;29;20056;-78
2023/10/03 06:38:34;;;;;;;23.80;10.32;;;;;;;19.57;65.92;99707.03;10138273;29;20054;-79
2023/10/03 06:43:39;;;;;;;22.52;9.35;;;;;;;19.64;65.82;99708.75;10137726;29;20075;-78
2023/10/03 06:48:41;;;;;;;20.98;9.57;;;;;;;19.43;67.39;99700.63;10117273;29;20658;-80
2023/10/03 06:53:46;;;;;;;22.33;9.30;;;;;;;19.51;67.69;99741.31;10137690;29;20050;-78
2023/10/03 06:58:51;;;;;;;23.25;10.75;;;;;;;19.58;68.14;99723.19;10135995;29;20049;-80
2023/10/03 07:03:56;;;;;;;22.90;10.57;;;;;;;19.88;67.24;99722.91;10135686;29;20055;-78
2023/10/03 07:09:00;;;;;;;19.10;9.93;;;;;;;19.39;69.22;99721.09;10147577;29;20062;-79
2023/10/03 07:14:05;;;;;;;18.95;8.57;;;;;;;19.00;71.28;99741.50;10143094;29;20076;-80
2023/10/03 07:19:10;;;;;;;18.98;9.27;;;;;;;19.67;69.48;99741.03;10145895;29;20059;-78
2023/10/03 07:24:13;;;;;;;21.50;9.48;;;;;;;19.38;70.73;99733.03;10149794;29;21242;-80
2023/10/03 07:29:18;;;;;;;21.70;8.60;;;;;;;18.87;72.96;99758.56;10154960;29;20090;-80
2023/10/03 07:34:21;;;;;;;18.83;10.43;;;;;;;19.24;72.83;99743.81;10163252;29;20059;-83
2023/10/03 07:39:26;;;;;;;20.58;9.77;;;;;;;19.12;73.93;99761.72;10156687;29;20093;-77
2023/10/03 07:44:30;;;;;;;19.38;9.05;;;;;;;19.01;73.80;99781.31;10147309;29;20116;-79
2023/10/03 07:49:33;;;;;;;19.70;8.45;;;;;;;19.68;71.44;99750.03;10146987;29;20063;-79
2023/10/03 07:54:37;;;;;;;20.60;9.52;;;;;;;19.59;71.81;99764.88;10144736;29;20462;-79
2023/10/03 07:59:43;;;;;;;19.58;9.30;;;;;;;18.97;74.37;99802.59;10161813;29;20162;-78
2023/10/03 08:04:47;;;;;;;18.23;7.97;;;;;;;19.01;74.69;99800.34;10135400;29;21553;-81
2023/10/03 08:09:50;;;;;;;21.17;10.20;;;;;;;19.31;73.92;99795.63;10158587;29;20142;-79
2023/10/03 08:14:55;;;;;;;12.80;6.72;;;;;;;19.40;71.85;99799.03;10159522;29;20079;-81
2023/10/03 08:20:03;;;;;;;18.85;9.65;;;;;;;19.60;71.03;99801.97;10145083;29;20056;-81
2023/10/03 08:25:08;;;;;;;16.95;6.15;;;;;;;19.33;71.89;99792.69;10140392;29;20060;-79
2023/10/03 08:30:25;;;;;;;15.82;7.35;;;;;;;18.87;74.23;99804.81;10145368;29;20496;-80
2023/10/03 08:35:38;;;;;;;12.65;6.70;;;;;;;18.70;75.37;99817.75;10141685;29;20044;-79
2023/10/03 08:40:44;;;;;;;13.88;8.27;;;;;;;19.30;73.54;99823.88;10145601;29;20098;-79
2023/10/03 08:45:53;;;;;;;18.80;9.23;;;;;;;18.94;75.04;99803.00;10134869;29;20420;-78
2023/10/03 08:50:58;;;;;;;20.17;9.50;;;;;;;19.07;75.44;99823.25;10142159;29;20052;-80
2023/10/03 08:56:06;;;;;;;17.42;8.23;;;;;;;19.04;73.99;99905.28;10140585;29;20060;-79
2023/10/03 09:01:17;;;;;;;9.75;4.80;;;;;;;18.42;75.86;99873.88;10138017;28;20048;-77
2023/10/03 09:06:20;;;;;;;11.80;6.28;;;;;;;18.96;74.12;99851.81;10147814;29;20060;-78
2023/10/03 09:11:28;;;;;;;11.63;7.10;;;;;;;19.51;72.37;99858.44;10148844;29;20047;-78
2023/10/03 09:16:38;;;;;;;9.40;5.57;;;;;;;19.08;73.60;99869.28;10157905;28;20068;-79
2023/10/03 09:21:41;;;;;;;11.52;5.32;;;;;;;19.07;72.67;99892.13;10150395;29;20061;-78
2023/10/03 09:26:46;;;;;;;5.05;3.58;;;;;;;18.66;72.90;99891.78;10152178;28;20047;-78
2023/10/03 09:31:57;;;;;;;7.05;4.45;;;;;;;18.73;72.46;99898.16;10148973;28;20047;-77
2023/10/03 09:37:02;;;;;;;10.55;4.10;;;;;;;18.34;73.97;99894.69;10154504;28;20059;-77
2023/10/03 09:42:09;;;;;;;6.40;3.78;;;;;;;18.20;77.38;99911.84;10151207;28;20052;-77
2023/10/03 09:47:17;;;;;;;11.10;5.03;;;;;;;17.76;79.60;99926.13;10148622;28;20055;-78
2023/10/03 09:52:24;;;;;;;6.07;5.03;;;;;;;18.20;78.32;99906.41;10144469;28;20542;-77
2023/10/03 09:57:28;;;;;;;9.43;4.95;;;;;;;18.48;77.41;99913.91;10161370;28;20063;-80
2023/10/03 10:02:37;;;;;;;11.35;5.38;;;;;;;18.21;81.54;99912.69;10195038;28;20052;-79
2023/10/03 10:07:52;;;;;;;8.60;5.55;;;;;;;18.38;80.28;99905.22;10173528;29;20166;-78
2023/10/03 10:13:12;;;;;;;9.90;5.43;;;;;;;18.20;80.47;99908.28;10142941;29;20059;-77
2023/10/03 10:18:57;;;;;;;9.40;5.22;;;;;;;17.86;80.53;99907.72;10145575;28;20056;-78
2023/10/03 10:24:25;;;;;;;7.43;5.47;;;;;;;18.17;81.96;99898.63;10147380;28;20063;-78
2023/10/03 10:29:33;;;;;;;7.88;5.53;;;;;;;18.28;78.75;99949.81;10146597;28;20566;-78
2023/10/03 10:34:40;;;;;;;6.72;4.82;;;;;;;17.73;81.45;99947.41;10136339;29;20139;-78
2023/10/03 10:40:17;;;;;;;9.45;5.10;;;;;;;17.85;80.96;99943.22;10146122;29;20119;-78
2023/10/03 10:45:21;;;;;;;8.23;5.35;;;;;;;18.26;78.18;99934.72;10155974;28;20080;-79
2023/10/03 10:50:27;;;;;;;5.93;4.50;;;;;;;18.42;77.22;99936.44;10149650;28;20074;-78
2023/10/03 10:55:33;;;;;;;5.43;4.18;;;;;;;18.40;76.77;99936.59;10137160;29;20048;-77
2023/10/03 11:00:36;;;;;;;9.18;5.20;;;;;;;18.38;77.46;99927.81;10156962;28;20056;-78
2023/10/03 11:05:44;;;;;;;6.45;4.38;;;;;;;17.81;79.08;99921.00;10154321;29;20055;-78
2023/10/03 11:10:49;;;;;;;8.65;5.82;;;;;;;18.07;79.07;99931.53;10152807;29;20512;-78
2023/10/03 11:15:53;;;;;;;8.80;5.50;;;;;;;18.79;76.17;99920.03;10165611;28;20055;-78
2023/10/03 11:20:58;;;;;;;8.77;5.25;;;;;;;19.39;73.85;99930.78;10162597;28;20220;-77
2023/10/03 11:26:03;;;;;;;10.63;4.60;;;;;;;19.79;71.42;99942.97;10160711;28;20051;-77
2023/10/03 11:31:09;;;;;;;5.90;3.70;;;;;;;18.95;74.70;99957.09;10155043;29;20052;-77
2023/10/03 11:36:14;;;;;;;7.93;4.13;;;;;;;18.46;76.71;99937.75;10153923;28;20056;-79
2023/10/03 11:41:30;;;;;;;7.47;4.65;;;;;;;18.71;74.76;99944.59;10154664;28;20056;-78
2023/10/03 11:46:37;;;;;;;9.05;4.95;;;;;;;18.45;76.88;99957.81;10179047;28;20190;-80
2023/10/03 11:51:43;;;;;;;9.65;4.80;;;;;;;18.23;76.99;99932.38;10156722;28;20059;-78
2023/10/03 11:56:48;;;;;;;11.80;5.30;;;;;;;18.49;75.67;99930.06;10146384;29;20055;-78
2023/10/03 12:01:56;;;;;;;5.72;2.90;;;;;;;17.92;76.50;99982.22;10153731;28;20048;-78
2023/10/03 12:07:01;;;;;;;5.55;3.70;;;;;;;17.79;78.09;99963.81;10163247;28;20148;-79
2023/10/03 12:12:04;;;;;;;5.32;2.75;;;;;;;17.04;84.79;100000.53;10156473;28;20195;-78
2023/10/03 12:17:07;;;;;;;3.55;2.58;;;;;;;16.62;89.76;99995.44;10148863;28;20043;-78
2023/10/03 12:22:12;;;;;;;6.70;1.65;;;;;;;16.47;87.44;99975.44;10156436;28;20060;-78
2023/10/03 12:27:15;;;;;;;1.48;1.15;;;;;;;16.49;84.67;100008.66;10135724;29;20059;-78
2023/10/03 12:32:18;;;;;;;1.75;0.90;;;;;;;16.53;83.85;100020.84;10157682;28;20047;-78
2023/10/03 12:37:23;;;;;;;2.25;0.70;;;;;;;16.66;83.13;100031.16;10175094;28;20562;-78
2023/10/03 12:42:26;;;;;;;0.80;0.75;;;;;;;16.63;82.04;100037.78;10150215;28;20047;-78
2023/10/03 12:47:29;;;;;;;2.00;0.70;;;;;;;16.83;80.61;100051.78;10156068;29;20197;-78
2023/10/03 12:52:33;;;;;;;1.77;0.80;;;;;;;17.73;77.59;100047.91;10160458;28;20084;-78
2023/10/03 12:57:37;;;;;;;0.80;0.50;;;;;;;17.64;77.88;100055.25;10153612;29;20048;-79
2023/10/03 13:02:42;;;;;;;1.23;0.40;;;;;;;16.63;81.45;100066.75;10191147;28;20050;-79
2023/10/03 13:07:48;;;;;;;2.15;1.27;;;;;;;16.87;81.62;100091.13;10180388;28;20056;-79
2023/10/03 13:12:54;;;;;;;2.53;0.50;;;;;;;16.63;82.22;100096.59;10171892;29;20052;-79
2023/10/03 13:17:58;;;;;;;1.27;0.60;;;;;;;16.66;80.47;100107.09;10173189;28;20067;-79
2023/10/03 13:23:04;;;;;;;1.23;0.50;;;;;;;16.71;79.79;100124.53;10173847;28;20169;-78
2023/10/03 13:28:10;;;;;;;1.75;0.43;;;;;;;15.79;83.32;100136.41;10178490;28;20056;-79
2023/10/03 13:33:13;;;;;;;1.92;0.30;;;;;;;15.98;82.00;100146.97;10170996;29;20063;-79
2023/10/03 13:38:18;;;;;;;1.23;0.43;;;;;;;16.10;80.73;100156.50;10205660;29;20052;-80
2023/10/03 13:43:27;;;;;;;4.78;0.60;;;;;;;16.39;78.49;100184.19;10182493;29;20052;-80
2023/10/03 13:48:30;;;;;;;2.38;0.40;;;;;;;16.23;78.62;100188.50;10171305;29;20044;-80
2023/10/03 13:53:34;;;;;;;2.13;0.30;;;;;;;16.56;76.29;100173.19;10166153;29;20056;-81
2023/10/03 13:58:38;;;;;;;2.25;0.70;;;;;;;16.15;77.02;100178.53;10174284;28;20056;-79
2023/10/03 14:03:42;;;;;;;2.67;0.80;;;;;;;16.06;78.77;100179.50;10173038;28;20058;-80
2023/10/03 14:08:48;;;;;;;2.70;0.95;;;;;;;15.98;80.43;100197.59;10168227;29;20684;-79
2023/10/03 14:13:52;;;;;;;3.28;0.90;;;;;;;15.85;83.19;100219.72;10165251;28;20056;-80
2023/10/03 14:18:57;;;;;;;2.53;0.82;;;;;;;14.73;95.31;100207.81;10174841;28;20052;-79
2023/10/03 14:24:01;;;;;;;4.78;0.98;;;;;;;14.67;100.00;100226.50;10153522;29;20048;-79
2023/10/03 14:29:05;;;;;;;5.72;1.05;;;;;;;14.26;100.00;100253.06;10158443;28;21260;-79
2023/10/03 14:34:10;;;;;;;2.67;0.93;;;;;;;14.14;100.00;100257.81;10168869;29;20067;-80
2023/10/03 14:39:19;;;;;;;6.78;0.70;;;;;;;13.15;100.00;100287.09;10153724;29;20119;-78
2023/10/03 14:44:22;;;;;;;1.60;0.57;;;;;;;13.16;100.00;100296.88;10150810;29;20047;-79
2023/10/03 14:49:27;;;;;;;5.70;0.70;;;;;;;13.17;100.00;100336.38;10152813;28;20055;-78
2023/10/03 14:54:34;;;;;;;1.85;0.60;;;;;;;13.38;100.00;100338.91;10158531;28;20051;-79
2023/10/03 14:59:39;;;;;;;2.05;0.40;;;;;;;13.12;100.00;100358.34;10212879;28;21156;-79
2023/10/03 15:10:47;;;;;;;4.00;1.08;;;;;;;13.00;100.00;100402.59;11223866;23;20060;-79
2023/10/03 15:15:50;;;;;;;3.17;1.17;;;;;;;12.27;100.00;100410.03;10282073;28;20078;-79
2023/10/03 15:20:53;;;;;;;5.72;1.67;;;;;;;12.52;100.00;100419.53;10245959;28;20079;-77
2023/10/03 15:25:59;;;;;;;5.03;1.40;;;;;;;12.41;100.00;100447.41;10265981;28;20054;-79
2023/10/03 15:31:03;;;;;;;5.68;2.28;;;;;;;12.32;100.00;100469.78;10270303;28;20048;-80
2023/10/03 15:36:06;;;;;;;6.75;2.20;;;;;;;11.61;100.00;100475.78;10262879;28;20036;-79
2023/10/03 15:41:14;;;;;;;7.45;1.48;;;;;;;11.96;100.00;100493.47;10273983;28;20058;-79
2023/10/03 15:46:17;;;;;;;7.70;1.80;;;;;;;12.46;100.00;100507.13;10274186;28;20057;-79
2023/10/03 15:51:20;;;;;;;5.78;1.80;;;;;;;11.70;100.00;100507.28;10260334;28;20071;-78
2023/10/03 15:56:24;;;;;;;8.15;2.05;;;;;;;12.67;100.00;100523.28;10270556;28;20035;-79
2023/10/03 16:01:27;;;;;;;8.25;2.28;;;;;;;12.72;100.00;100531.78;10295004;28;20074;-78
2023/10/03 16:06:32;;;;;;;7.80;2.58;;;;;;;12.60;100.00;100555.28;10284582;28;20074;-78
2023/10/03 16:11:36;;;;;;;4.53;1.48;;;;;;;12.85;100.00;100571.16;10268525;28;20427;-81
2023/10/03 16:16:40;;;;;;;7.47;2.40;;;;;;;12.76;100.00;100589.00;10282064;28;20039;-77
2023/10/03 16:21:44;;;;;;;4.82;2.00;;;;;;;12.68;100.00;100586.97;10272501;28;20515;-79
2023/10/03 16:26:48;;;;;;;6.20;1.92;;;;;;;12.34;100.00;100591.69;10268368;28;20046;-79
2023/10/03 16:31:51;;;;;;;9.43;1.90;;;;;;;12.00;100.00;100604.44;10263764;28;20133;-79
2023/10/03 16:36:54;;;;;;;5.80;2.35;;;;;;;12.05;100.00;100621.06;10267335;28;20411;-78
2023/10/03 16:41:59;;;;;;;9.15;2.00;;;;;;;11.88;100.00;100644.00;10257042;28;20051;-79
2023/10/03 16:47:03;;;;;;;9.15;1.80;;;;;;;12.27;100.00;100660.50;10255825;28;20050;-79
2023/10/03 16:52:06;;;;;;;8.15;2.38;;;;;;;12.23;100.00;100677.91;10253923;28;20111;-80
2023/10/03 16:57:11;;;;;;;11.48;2.88;;;;;;;12.32;100.00;100680.72;10256241;28;20039;-79
2023/10/03 17:02:14;;;;;;;9.55;2.80;;;;;;;12.10;100.00;100708.56;10249978;28;20046;-79
2023/10/03 17:07:17;;;;;;;9.35;2.35;;;;;;;12.20;100.00;100710.47;10251840;28;20102;-79
2023/10/03 17:12:24;;;;;;;9.50;2.28;;;;;;;11.62;100.00;100741.16;10249331;28;20451;-80
2023/10/03 17:17:27;;;;;;;9.60;1.90;;;;;;;11.16;100.00;100754.69;10253980;28;20047;-79
2023/10/03 17:22:30;;;;;;;4.57;1.98;;;;;;;10.88;100.00;100745.16;10260540;28;20034;-79
2023/10/03 17:27:34;;;;;;;4.43;1.90;;;;;;;11.04;100.00;100756.47;10248269;28;20063;-79
2023/10/03 17:32:37;;;;;;;5.93;1.40;;;;;;;10.91;100.00;100759.22;10274144;28;20047;-79
2023/10/03 17:37:41;;;;;;;5.13;1.98;;;;;;;11.09;100.00;100772.25;10294040;28;20065;-80
2023/10/03 17:42:46;;;;;;;7.13;1.83;;;;;;;10.99;100.00;100774.75;10272491;28;20070;-80
2023/10/03 17:47:49;;;;;;;2.80;1.40;;;;;;;10.91;100.00;100783.41;10249971;28;20139;-80
2023/10/03 17:52:52;;;;;;;7.65;1.48;;;;;;;10.56;100.00;100788.78;10266770;28;20067;-80
2023/10/03 17:57:56;;;;;;;7.72;1.67;;;;;;;11.04;100.00;100803.00;10266968;28;20043;-80
2023/10/03 18:03:01;;;;;;;10.40;1.95;;;;;;;11.17;100.00;100816.41;10245364;28;20142;-78
2023/10/03 18:08:05;;;;;;;4.40;1.83;;;;;;;11.18;100.00;100828.88;10228628;28;20066;-80
2023/10/03 18:13:09;;;;;;;6.65;2.05;;;;;;;10.54;100.00;100834.56;10268011;28;20039;-81
2023/10/03 18:18:12;;;;;;;5.63;1.98;;;;;;;10.89;100.00;100846.31;10260662;28;20395;-81
2023/10/03 18:23:16;;;;;;;7.80;2.50;;;;;;;11.02;100.00;100853.34;10284852;28;20107;-80
2023/10/03 18:28:20;;;;;;;7.18;3.10;;;;;;;10.93;100.00;100855.88;10285547;28;20063;-80
2023/10/03 18:33:23;;;;;;;5.15;2.65;;;;;;;10.76;100.00;100870.59;10252158;28;20051;-80
2023/10/03 18:38:27;;;;;;;7.97;3.42;;;;;;;10.81;100.00;100876.47;10272396;28;20233;-80
2023/10/03 18:43:31;;;;;;;10.43;3.53;;;;;;;11.19;100.00;100879.00;10258093;28;20078;-80
2023/10/03 18:48:34;;;;;;;9.45;4.43;;;;;;;11.08;100.00;100896.88;10266884;28;20047;-80
2023/10/03 18:53:38;;;;;;;14.35;4.97;;;;;;;11.37;100.00;100900.09;10276405;28;20137;-80
2023/10/03 18:58:43;;;;;;;14.07;4.78;;;;;;;11.28;100.00;100917.78;10273347;28;20459;-80
2023/10/03 19:03:46;;;;;;;12.13;4.47;;;;;;;11.26;100.00;100927.78;10268761;28;20128;-80
2023/10/03 19:08:51;;;;;;;10.43;4.03;;;;;;;10.98;100.00;100932.50;10247369;28;20103;-79
2023/10/03 19:13:56;;;;;;;9.68;3.13;;;;;;;11.09;100.00;100953.22;10264309;28;20051;-79
2023/10/03 19:18:59;;;;;;;12.43;2.90;;;;;;;11.06;100.00;100951.63;10233757;28;20047;-79
2023/10/03 19:24:03;;;;;;;12.45;3.10;;;;;;;10.99;100.00;100973.69;10236109;28;20090;-79
2023/10/03 19:29:09;;;;;;;15.32;4.10;;;;;;;11.11;100.00;100974.59;10245980;28;20078;-78
2023/10/03 19:34:12;;;;;;;4.97;2.70;;;;;;;11.01;100.00;100982.50;10255000;28;20754;-80
2023/10/03 19:39:15;;;;;;;13.05;4.65;;;;;;;10.97;100.00;100987.25;10256429;28;20058;-79
2023/10/03 19:44:20;;;;;;;6.22;3.03;;;;;;;10.75;100.00;101019.31;10268298;28;20498;-79
2023/10/03 19:49:23;;;;;;;6.05;2.92;;;;;;;10.80;100.00;100992.97;10250494;28;20059;-79
2023/10/03 19:54:26;;;;;;;6.07;2.53;;;;;;;10.94;100.00;100992.88;10262415;28;20059;-79
2023/10/03 19:59:30;;;;;;;8.52;4.20;;;;;;;11.05;100.00;101010.88;10262517;28;20063;-79
2023/10/03 20:04:33;;;;;;;11.18;3.92;;;;;;;11.26;100.00;101014.72;10262849;28;20047;-79
2023/10/03 20:09:37;;;;;;;9.05;3.92;;;;;;;11.06;100.00;101009.91;10267625;28;20039;-79
2023/10/03 20:14:42;;;;;;;7.78;4.20;;;;;;;11.33;100.00;101009.75;10236213;28;20047;-79
2023/10/03 20:19:45;;;;;;;9.95;4.88;;;;;;;11.41;100.00;101025.28;10257036;28;20128;-79
2023/10/03 20:24:47;;;;;;;12.82;4.38;;;;;;;11.31;100.00;101038.59;10252075;28;20425;-80
2023/10/03 20:29:52;;;;;;;10.68;3.42;;;;;;;11.19;100.00;101043.03;10258031;28;20391;-80
2023/10/03 20:34:55;;;;;;;11.25;4.82;;;;;;;11.62;100.00;101037.16;10255578;28;20558;-79
2023/10/03 20:39:58;;;;;;;10.55;4.30;;;;;;;11.56;100.00;101050.22;10262450;28;20058;-79
2023/10/03 20:45:03;;;;;;;12.50;3.85;;;;;;;11.31;100.00;101060.09;10252444;28;20102;-79
2023/10/03 20:50:08;;;;;;;8.50;4.78;;;;;;;11.37;100.00;101062.34;10240209;28;20695;-79
2023/10/03 20:55:10;;;;;;;13.18;4.68;;;;;;;11.30;100.00;101074.53;10253397;28;20454;-80
2023/10/03 21:00:15;;;;;;;9.57;4.28;;;;;;;11.50;100.00;101067.69;10247705;28;20047;-79
2023/10/03 21:05:18;;;;;;;15.07;4.70;;;;;;;11.37;100.00;101073.09;10239773;28;20486;-79
2023/10/03 21:10:22;;;;;;;8.05;3.65;;;;;;;11.34;100.00;101092.16;10255710;28;20047;-79
2023/10/03 21:15:26;;;;;;;12.50;4.15;;;;;;;11.57;100.00;101086.91;10255191;28;20046;-80
2023/10/03 21:20:29;;;;;;;11.20;4.55;;;;;;;11.78;100.00;101095.22;10249622;28;20043;-79
2023/10/03 21:25:32;;;;;;;9.07;2.83;;;;;;;11.39;99.38;101114.19;10252770;28;20050;-80
2023/10/03 21:30:36;;;;;;;12.65;3.17;;;;;;;11.64;97.16;101113.25;10237275;28;20054;-80
2023/10/03 21:35:39;;;;;;;11.77;4.20;;;;;;;11.42;98.97;101115.81;10279501;28;20043;-81
2023/10/03 21:40:43;;;;;;;8.45;4.15;;;;;;;11.62;97.42;101119.72;10269766;28;20043;-80
2023/10/03 21:45:47;;;;;;;9.40;3.53;;;;;;;11.57;96.49;101127.25;10269832;28;20062;-80
2023/10/03 21:50:52;;;;;;;10.85;4.03;;;;;;;11.46;98.16;101119.97;10262266;28;20047;-80
2023/10/03 21:55:55;;;;;;;8.15;3.97;;;;;;;11.49;96.40;101112.56;10289598;28;20046;-83
2023/10/03 22:01:02;;;;;;;8.43;4.30;;;;;;;11.33;98.32;101114.66;10273481;28;20103;-80
2023/10/03 22:06:05;;;;;;;18.38;5.78;;;;;;;11.56;96.14;101126.41;10261646;28;20036;-80
2023/10/03 22:11:09;;;;;;;11.65;5.53;;;;;;;11.42;97.20;101121.19;10259576;28;20051;-80
2023/10/03 22:16:15;;;;;;;13.63;5.30;;;;;;;11.30;97.25;101135.50;10255873;28;20583;-82
2023/10/03 22:21:19;;;;;;;15.32;4.50;;;;;;;11.53;95.58;101117.72;10257509;28;20413;-79
2023/10/03 22:26:22;;;;;;;7.03;3.65;;;;;;;11.47;95.10;101124.41;10229605;28;20118;-79
2023/10/03 22:31:27;;;;;;;8.85;5.13;;;;;;;11.47;95.06;101129.78;10235599;28;20117;-79
2023/10/03 22:36:30;;;;;;;9.98;4.03;;;;;;;11.54;94.53;101122.97;10263594;28;20043;-79
2023/10/03 22:41:34;;;;;;;12.57;4.97;;;;;;;11.55;93.78;101115.78;10258591;28;20047;-80
2023/10/03 22:46:38;;;;;;;12.30;4.20;;;;;;;11.61;93.84;101134.16;10249933;28;20577;-80
2023/10/03 22:51:41;;;;;;;12.65;4.65;;;;;;;11.74;92.39;101137.66;10244716;28;20044;-79
2023/10/03 22:56:44;;;;;;;8.45;4.28;;;;;;;11.61;92.88;101131.47;10256644;28;20036;-78
2023/10/03 23:01:48;;;;;;;10.93;4.82;;;;;;;11.53;93.09;101131.16;10260211;28;20051;-79
2023/10/03 23:06:51;;;;;;;8.23;3.63;;;;;;;11.28;93.53;101146.41;10263279;28;20765;-79
2023/10/03 23:11:55;;;;;;;12.02;4.30;;;;;;;10.99;94.85;101145.75;10263147;28;20051;-78
2023/10/03 23:16:59;;;;;;;12.43;4.80;;;;;;;11.48;92.28;101143.09;10261237;28;20094;-78